Currituck — AEFR — position and weather

sailwx.info

Track history (hours):
 
Tides and Currents Weather Stations Pressure Air Temp Water Temp Dewpoint Dewpoint Depression Visibility Wind Speed Wind Dir Waves Ship Positions

Currituck

Last reported at 2016-May-19 18:29 UTC. Time now 2016-May-29 19:15 UTC.
Position N 42°07' W 070°38'.
Warning: this ship's position is 10 days out of date.

Length 45 m; draft 3 m.

Type: Dredging. MMSI: 369970446.

Date/timePositionNaut miles runAvg speedWind from/ knotsBaromVisibWave heightAir tempDewpointWater temp
2016-May-19 18:29N 42°07' W 070°38'7 7.7
2016-May-19 17:33N 42°14' W 070°42'4 3.5
2016-May-19 16:33N 42°15' W 070°47'1 0.5
2016-May-19 15:33N 42°15' W 070°47'8 8.3
2016-May-19 14:33N 42°09' W 070°39'5 4.8
2016-May-19 13:33N 42°05' W 070°37'8 7.8
2016-May-19 12:29N 42°12' W 070°41'5 5.3
2016-May-19 11:33N 42°15' W 070°47'0 0.4
2016-May-19 10:33N 42°15' W 070°47'0 0.0
2016-May-19 09:33N 42°15' W 070°47'0 0.0
2016-May-19 08:33N 42°15' W 070°47'0 0.0
2016-May-19 07:33N 42°15' W 070°47'0 0.0
2016-May-19 06:33N 42°15' W 070°47'0 0.0
2016-May-19 05:31N 42°15' W 070°47'0 0.0
2016-May-19 04:25N 42°15' W 070°47'0 0.0
2016-May-19 03:30N 42°15' W 070°47'0 0.0
2016-May-19 02:33N 42°15' W 070°47'0 0.0
2016-May-19 01:32N 42°15' W 070°47'0 0.0
2016-May-19 00:32N 42°15' W 070°47'0 0.0
2016-May-18 23:33N 42°15' W 070°47'0 0.0
2016-May-18 22:33N 42°15' W 070°47'0 0.0
2016-May-18 21:33N 42°15' W 070°47'0 0.0
2016-May-18 20:33N 42°15' W 070°47'0 0.0
2016-May-18 19:33N 42°15' W 070°47'0 0.0
2016-May-18 18:33N 42°15' W 070°47'0 0.0
2016-May-18 17:33N 42°15' W 070°47'0 0.0
2016-May-18 16:33N 42°15' W 070°47'0 0.0
2016-May-18 15:33N 42°15' W 070°47'0 0.0
2016-May-18 14:33N 42°15' W 070°47'0 0.0
2016-May-18 13:33N 42°15' W 070°47'0 0.0
2016-May-18 12:32N 42°15' W 070°47'0 0.0
2016-May-18 11:33N 42°15' W 070°47'0 0.0
2016-May-18 10:34N 42°15' W 070°47'0 0.0
2016-May-18 09:33N 42°15' W 070°47'0 0.0
2016-May-18 08:33N 42°15' W 070°47'0 0.0
2016-May-18 07:33N 42°15' W 070°47'0 0.0
2016-May-18 06:33N 42°15' W 070°47'0 0.0
2016-May-18 05:33N 42°15' W 070°47'0 0.0
2016-May-18 04:34N 42°15' W 070°47'0 0.0
2016-May-18 03:33N 42°15' W 070°47'0 0.0
2016-May-18 02:33N 42°15' W 070°47'0 0.0
2016-May-18 01:33N 42°15' W 070°47'0 0.0
2016-May-18 00:33N 42°15' W 070°47'0 0.0
2016-May-17 23:33N 42°15' W 070°47'0 0.0
2016-May-17 22:33N 42°15' W 070°47'1 1.3
2016-May-17 21:33N 42°16' W 070°46'1 0.2
2016-May-17 17:32N 42°15' W 070°47'0 0.1
2016-May-17 16:32N 42°15' W 070°47'2 0.6
2016-May-17 12:27N 42°15' W 070°44'2 2.7
2016-May-17 11:33N 42°15' W 070°47'0 0.0
2016-May-17 10:33N 42°15' W 070°47'0 0.4
2016-May-17 09:33N 42°15' W 070°47'0 0.0
2016-May-17 08:33N 42°15' W 070°47'0 0.0
2016-May-17 07:33N 42°15' W 070°47'0 0.0
2016-May-17 06:32N 42°15' W 070°47'0 0.0
2016-May-17 05:33N 42°15' W 070°47'0 0.0
2016-May-17 04:33N 42°15' W 070°47'0 0.0
2016-May-17 03:34N 42°15' W 070°47'0 0.0
2016-May-17 02:34N 42°15' W 070°47'0 0.0
2016-May-17 01:27N 42°15' W 070°47'0 0.0
2016-May-17 00:32N 42°15' W 070°47'0 0.0
2016-May-16 23:33N 42°15' W 070°47'0 0.0
2016-May-16 22:32N 42°15' W 070°47'0 0.1
2016-May-16 17:25N 42°15' W 070°47'0 0.1
2016-May-16 16:33N 42°15' W 070°47'0 0.0
2016-May-16 11:31N 42°15' W 070°47'0 0.1
2016-May-16 10:31N 42°15' W 070°47'0 0.4
2016-May-16 09:31N 42°15' W 070°47'0 0.0
2016-May-16 08:22N 42°15' W 070°47'0 0.0
2016-May-16 05:28N 42°15' W 070°47'0 0.0
2016-May-16 04:16N 42°15' W 070°47'0 0.0
2016-May-16 03:25N 42°15' W 070°47'0 0.0
2016-May-16 02:27N 42°15' W 070°47'0 0.0
2016-May-16 01:23N 42°15' W 070°47'0 0.0
2016-May-16 00:20N 42°15' W 070°47'0 0.0
2016-May-15 23:34N 42°15' W 070°47'0 0.0
2016-May-15 22:33N 42°15' W 070°47'2 2.1
2016-May-15 21:33N 42°16' W 070°45'2 0.5
2016-May-15 17:32N 42°15' W 070°47'0 0.0
2016-May-15 16:32N 42°15' W 070°47'0 0.0
2016-May-15 12:05N 42°15' W 070°47'0 0.1
2016-May-15 11:31N 42°15' W 070°47'0 0.1
2016-May-15 10:32N 42°15' W 070°47'0 0.5
2016-May-15 09:32N 42°15' W 070°47'0 0.0
2016-May-15 08:26N 42°15' W 070°47'0 0.0
2016-May-15 06:24N 42°15' W 070°47'0 0.0
2016-May-15 05:33N 42°15' W 070°47'0 0.0
2016-May-15 04:34N 42°15' W 070°47'0 0.0
2016-May-15 03:33N 42°15' W 070°47'0 0.0
2016-May-15 02:32N 42°15' W 070°47'0 0.0
2016-May-15 01:32N 42°15' W 070°47'0 0.0
2016-May-15 00:33N 42°15' W 070°47'0 0.0
2016-May-14 23:33N 42°15' W 070°47'0 0.0
2016-May-14 22:32N 42°15' W 070°47'0 0.1
2016-May-14 17:32N 42°15' W 070°47'0 0.0
2016-May-14 16:30N 42°15' W 070°47'3 3.4
2016-May-14 15:32N 42°14' W 070°43'5 2.0
2016-May-14 13:11N 42°10' W 070°40'5 7.7
2016-May-14 12:33N 42°14' W 070°43'3 3.2
2016-May-14 11:32N 42°15' W 070°47'0 0.0
2016-May-14 10:28N 42°15' W 070°47'0 0.4
2016-May-14 09:32N 42°15' W 070°47'0 0.0
2016-May-14 08:28N 42°15' W 070°47'0 0.0
2016-May-14 07:30N 42°15' W 070°47'0 0.0
2016-May-14 06:26N 42°15' W 070°47'0 0.0
2016-May-14 05:33N 42°15' W 070°47'0 0.0
2016-May-14 04:25N 42°15' W 070°47'0 0.0
2016-May-14 03:32N 42°15' W 070°47'0 0.0
2016-May-14 02:14N 42°15' W 070°47'0 0.0
2016-May-14 01:25N 42°15' W 070°47'0 0.0
2016-May-14 00:26N 42°15' W 070°47'0 0.1
2016-May-13 22:06N 42°14' W 070°47'1 2.0
2016-May-13 21:31N 42°15' W 070°47'10 1.2
2016-May-13 13:33N 42°08' W 070°38'7 7.4
2016-May-13 12:33N 42°14' W 070°43'3 2.9
2016-May-13 11:32N 42°15' W 070°47'0 0.1
2016-May-13 10:33N 42°15' W 070°47'0 0.4
2016-May-13 09:33N 42°15' W 070°47'0 0.0
2016-May-13 08:33N 42°15' W 070°47'0 0.0
2016-May-13 07:33N 42°15' W 070°47'0 0.0
2016-May-13 06:33N 42°15' W 070°47'0 0.0
2016-May-13 05:33N 42°15' W 070°47'0 0.0
2016-May-13 04:33N 42°15' W 070°47'0 0.0
2016-May-13 03:33N 42°15' W 070°47'0 0.0
2016-May-13 02:33N 42°15' W 070°47'0 0.0
2016-May-13 01:32N 42°15' W 070°47'0 0.0
2016-May-13 00:32N 42°15' W 070°47'0 0.0
2016-May-12 23:33N 42°15' W 070°47'0 0.0
2016-May-12 22:33N 42°15' W 070°47'3 2.7
2016-May-12 21:31N 42°15' W 070°43'9 9.2
2016-May-12 20:33N 42°07' W 070°38'1 0.8
2016-May-12 19:33N 42°07' W 070°37'7 7.5
2016-May-12 18:33N 42°13' W 070°42'4 4.1
2016-May-12 17:33N 42°15' W 070°47'0 0.1
2016-May-12 16:34N 42°15' W 070°47'3 2.5
2016-May-12 15:33N 42°15' W 070°44'9 8.9
2016-May-12 14:31N 42°07' W 070°37'1 1.2
2016-May-12 13:20N 42°08' W 070°38'6 7.3
2016-May-12 12:33N 42°13' W 070°42'4 4.2
2016-May-12 11:33N 42°15' W 070°47'0 0.1
2016-May-12 10:33N 42°15' W 070°47'0 0.5
2016-May-12 09:33N 42°15' W 070°47'0 0.0
2016-May-12 08:33N 42°15' W 070°47'0 0.0
2016-May-12 07:33N 42°15' W 070°47'0 0.0
2016-May-12 06:33N 42°15' W 070°47'0 0.0
2016-May-12 05:33N 42°15' W 070°47'0 0.0
2016-May-12 04:33N 42°15' W 070°47'0 0.0
2016-May-12 03:33N 42°15' W 070°47'0 0.0
2016-May-12 02:33N 42°15' W 070°47'0 0.0
2016-May-12 01:33N 42°15' W 070°47'0 0.0
2016-May-12 00:33N 42°15' W 070°47'0 0.0
2016-May-11 23:33N 42°15' W 070°47'0 0.0
2016-May-11 22:33N 42°15' W 070°47'3 2.9
2016-May-11 21:33N 42°15' W 070°43'8 3.9
2016-May-11 19:26N 42°08' W 070°37'6 7.3
2016-May-11 18:33N 42°13' W 070°42'4 4.3
2016-May-11 17:33N 42°15' W 070°47'0 0.0
2016-May-11 16:32N 42°15' W 070°47'0 0.4
2016-May-11 15:33N 42°15' W 070°47'0 0.0
2016-May-11 14:32N 42°15' W 070°47'0 0.0
2016-May-11 13:33N 42°15' W 070°47'0 0.0
2016-May-11 12:33N 42°15' W 070°47'0 0.0
2016-May-11 11:33N 42°15' W 070°47'0 0.0
2016-May-11 10:32N 42°15' W 070°47'0 0.0
2016-May-11 09:33N 42°15' W 070°47'0 0.0
2016-May-11 08:29N 42°15' W 070°47'0 0.0
2016-May-11 07:33N 42°15' W 070°47'0 0.0
2016-May-11 06:33N 42°15' W 070°47'0 0.0
2016-May-11 05:33N 42°15' W 070°47'0 0.0
2016-May-11 04:33N 42°15' W 070°47'0 0.0
2016-May-11 03:33N 42°15' W 070°47'0 0.0
2016-May-11 02:33N 42°15' W 070°47'0 0.0
2016-May-11 01:33N 42°15' W 070°47'0 0.0
2016-May-11 00:34N 42°15' W 070°47'0 0.0
2016-May-10 23:33N 42°15' W 070°47'0 0.0
2016-May-10 22:33N 42°15' W 070°47'4 3.5
2016-May-10 21:32N 42°14' W 070°43'4 1.9
2016-May-10 19:13N 42°10' W 070°39'7 7.3
2016-May-10 18:14N 42°16' W 070°45'1 1.8
2016-May-10 17:27N 42°15' W 070°47'1 1.1
2016-May-10 16:32N 42°16' W 070°46'6 1.8
2016-May-10 13:31N 42°12' W 070°41'6 5.7
2016-May-10 12:30N 42°15' W 070°47'0 0.3
2016-May-10 11:33N 42°15' W 070°47'0 0.0
2016-May-10 10:33N 42°15' W 070°47'0 0.5
2016-May-10 09:33N 42°15' W 070°47'0 0.0
2016-May-10 08:33N 42°15' W 070°47'0 0.0
2016-May-10 07:33N 42°15' W 070°47'0 0.0
2016-May-10 06:33N 42°15' W 070°47'0 0.0
2016-May-10 05:33N 42°15' W 070°47'0 0.0
2016-May-10 04:33N 42°15' W 070°47'0 0.0
2016-May-10 03:33N 42°15' W 070°47'0 0.0
2016-May-10 02:33N 42°15' W 070°47'0 0.0
2016-May-10 01:32N 42°15' W 070°47'0 0.0
2016-May-10 00:28N 42°15' W 070°47'0 0.0
2016-May-09 23:33N 42°15' W 070°47'0 0.0
2016-May-09 22:32N 42°15' W 070°47'0 0.0
2016-May-09 21:31N 42°15' W 070°47'0 0.0
2016-May-09 20:20N 42°15' W 070°47'0 0.0
2016-May-09 19:27N 42°15' W 070°47'2 2.1
2016-May-09 18:32N 42°16' W 070°45'  
Track history (hours):
 
Tides and Currents Weather Stations Pressure Air Temp Water Temp Dewpoint Dewpoint Depression Visibility Wind Speed Wind Dir Waves Ship Positions

Currituck

Last reported at 2016-May-19 18:29 UTC. Time now 2016-May-29 19:15 UTC.
Position N 42°07' W 070°38'.
Warning: this ship's position is 10 days out of date.

Length 45 m; draft 3 m.

Type: Dredging. MMSI: 369970446.

Date/timePositionNaut miles runAvg speedWind from/ knotsBaromVisibWave heightAir tempDewpointWater temp
2016-May-19 18:29N 42°07' W 070°38'7 7.7
2016-May-19 17:33N 42°14' W 070°42'4 3.5
2016-May-19 16:33N 42°15' W 070°47'1 0.5
2016-May-19 15:33N 42°15' W 070°47'8 8.3
2016-May-19 14:33N 42°09' W 070°39'5 4.8
2016-May-19 13:33N 42°05' W 070°37'8 7.8
2016-May-19 12:29N 42°12' W 070°41'5 5.3
2016-May-19 11:33N 42°15' W 070°47'0 0.4
2016-May-19 10:33N 42°15' W 070°47'0 0.0
2016-May-19 09:33N 42°15' W 070°47'0 0.0
2016-May-19 08:33N 42°15' W 070°47'0 0.0
2016-May-19 07:33N 42°15' W 070°47'0 0.0
2016-May-19 06:33N 42°15' W 070°47'0 0.0
2016-May-19 05:31N 42°15' W 070°47'0 0.0
2016-May-19 04:25N 42°15' W 070°47'0 0.0
2016-May-19 03:30N 42°15' W 070°47'0 0.0
2016-May-19 02:33N 42°15' W 070°47'0 0.0
2016-May-19 01:32N 42°15' W 070°47'0 0.0
2016-May-19 00:32N 42°15' W 070°47'0 0.0
2016-May-18 23:33N 42°15' W 070°47'0 0.0
2016-May-18 22:33N 42°15' W 070°47'0 0.0
2016-May-18 21:33N 42°15' W 070°47'0 0.0
2016-May-18 20:33N 42°15' W 070°47'0 0.0
2016-May-18 19:33N 42°15' W 070°47'0 0.0
2016-May-18 18:33N 42°15' W 070°47'0 0.0
2016-May-18 17:33N 42°15' W 070°47'0 0.0
2016-May-18 16:33N 42°15' W 070°47'0 0.0
2016-May-18 15:33N 42°15' W 070°47'0 0.0
2016-May-18 14:33N 42°15' W 070°47'0 0.0
2016-May-18 13:33N 42°15' W 070°47'0 0.0
2016-May-18 12:32N 42°15' W 070°47'0 0.0
2016-May-18 11:33N 42°15' W 070°47'0 0.0
2016-May-18 10:34N 42°15' W 070°47'0 0.0
2016-May-18 09:33N 42°15' W 070°47'0 0.0
2016-May-18 08:33N 42°15' W 070°47'0 0.0
2016-May-18 07:33N 42°15' W 070°47'0 0.0
2016-May-18 06:33N 42°15' W 070°47'0 0.0
2016-May-18 05:33N 42°15' W 070°47'0 0.0
2016-May-18 04:34N 42°15' W 070°47'0 0.0
2016-May-18 03:33N 42°15' W 070°47'0 0.0
2016-May-18 02:33N 42°15' W 070°47'0 0.0
2016-May-18 01:33N 42°15' W 070°47'0 0.0
2016-May-18 00:33N 42°15' W 070°47'0 0.0
2016-May-17 23:33N 42°15' W 070°47'0 0.0
2016-May-17 22:33N 42°15' W 070°47'1 1.3
2016-May-17 21:33N 42°16' W 070°46'1 0.2
2016-May-17 17:32N 42°15' W 070°47'0 0.1
2016-May-17 16:32N 42°15' W 070°47'2 0.6
2016-May-17 12:27N 42°15' W 070°44'2 2.7
2016-May-17 11:33N 42°15' W 070°47'0 0.0
2016-May-17 10:33N 42°15' W 070°47'0 0.4
2016-May-17 09:33N 42°15' W 070°47'0 0.0
2016-May-17 08:33N 42°15' W 070°47'0 0.0
2016-May-17 07:33N 42°15' W 070°47'0 0.0
2016-May-17 06:32N 42°15' W 070°47'0 0.0
2016-May-17 05:33N 42°15' W 070°47'0 0.0
2016-May-17 04:33N 42°15' W 070°47'0 0.0
2016-May-17 03:34N 42°15' W 070°47'0 0.0
2016-May-17 02:34N 42°15' W 070°47'0 0.0
2016-May-17 01:27N 42°15' W 070°47'0 0.0
2016-May-17 00:32N 42°15' W 070°47'0 0.0
2016-May-16 23:33N 42°15' W 070°47'0 0.0
2016-May-16 22:32N 42°15' W 070°47'0 0.1
2016-May-16 17:25N 42°15' W 070°47'0 0.1
2016-May-16 16:33N 42°15' W 070°47'0 0.0
2016-May-16 11:31N 42°15' W 070°47'0 0.1
2016-May-16 10:31N 42°15' W 070°47'0 0.4
2016-May-16 09:31N 42°15' W 070°47'0 0.0
2016-May-16 08:22N 42°15' W 070°47'0 0.0
2016-May-16 05:28N 42°15' W 070°47'0 0.0
2016-May-16 04:16N 42°15' W 070°47'0 0.0
2016-May-16 03:25N 42°15' W 070°47'0 0.0
2016-May-16 02:27N 42°15' W 070°47'0 0.0
2016-May-16 01:23N 42°15' W 070°47'0 0.0
2016-May-16 00:20N 42°15' W 070°47'0 0.0
2016-May-15 23:34N 42°15' W 070°47'0 0.0
2016-May-15 22:33N 42°15' W 070°47'2 2.1
2016-May-15 21:33N 42°16' W 070°45'2 0.5
2016-May-15 17:32N 42°15' W 070°47'0 0.0
2016-May-15 16:32N 42°15' W 070°47'0 0.0
2016-May-15 12:05N 42°15' W 070°47'0 0.1
2016-May-15 11:31N 42°15' W 070°47'0 0.1
2016-May-15 10:32N 42°15' W 070°47'0 0.5
2016-May-15 09:32N 42°15' W 070°47'0 0.0
2016-May-15 08:26N 42°15' W 070°47'0 0.0
2016-May-15 06:24N 42°15' W 070°47'0 0.0
2016-May-15 05:33N 42°15' W 070°47'0 0.0
2016-May-15 04:34N 42°15' W 070°47'0 0.0
2016-May-15 03:33N 42°15' W 070°47'0 0.0
2016-May-15 02:32N 42°15' W 070°47'0 0.0
2016-May-15 01:32N 42°15' W 070°47'0 0.0
2016-May-15 00:33N 42°15' W 070°47'0 0.0
2016-May-14 23:33N 42°15' W 070°47'0 0.0
2016-May-14 22:32N 42°15' W 070°47'0 0.1
2016-May-14 17:32N 42°15' W 070°47'0 0.0
2016-May-14 16:30N 42°15' W 070°47'3 3.4
2016-May-14 15:32N 42°14' W 070°43'5 2.0
2016-May-14 13:11N 42°10' W 070°40'5 7.7
2016-May-14 12:33N 42°14' W 070°43'3 3.2
2016-May-14 11:32N 42°15' W 070°47'0 0.0
2016-May-14 10:28N 42°15' W 070°47'0 0.4
2016-May-14 09:32N 42°15' W 070°47'0 0.0
2016-May-14 08:28N 42°15' W 070°47'0 0.0
2016-May-14 07:30N 42°15' W 070°47'0 0.0
2016-May-14 06:26N 42°15' W 070°47'0 0.0
2016-May-14 05:33N 42°15' W 070°47'0 0.0
2016-May-14 04:25N 42°15' W 070°47'0 0.0
2016-May-14 03:32N 42°15' W 070°47'0 0.0
2016-May-14 02:14N 42°15' W 070°47'0 0.0
2016-May-14 01:25N 42°15' W 070°47'0 0.0
2016-May-14 00:26N 42°15' W 070°47'0 0.1
2016-May-13 22:06N 42°14' W 070°47'1 2.0
2016-May-13 21:31N 42°15' W 070°47'10 1.2
2016-May-13 13:33N 42°08' W 070°38'7 7.4
2016-May-13 12:33N 42°14' W 070°43'3 2.9
2016-May-13 11:32N 42°15' W 070°47'0 0.1
2016-May-13 10:33N 42°15' W 070°47'0 0.4
2016-May-13 09:33N 42°15' W 070°47'0 0.0
2016-May-13 08:33N 42°15' W 070°47'0 0.0
2016-May-13 07:33N 42°15' W 070°47'0 0.0
2016-May-13 06:33N 42°15' W 070°47'0 0.0
2016-May-13 05:33N 42°15' W 070°47'0 0.0
2016-May-13 04:33N 42°15' W 070°47'0 0.0
2016-May-13 03:33N 42°15' W 070°47'0 0.0
2016-May-13 02:33N 42°15' W 070°47'0 0.0
2016-May-13 01:32N 42°15' W 070°47'0 0.0
2016-May-13 00:32N 42°15' W 070°47'0 0.0
2016-May-12 23:33N 42°15' W 070°47'0 0.0
2016-May-12 22:33N 42°15' W 070°47'3 2.7
2016-May-12 21:31N 42°15' W 070°43'9 9.2
2016-May-12 20:33N 42°07' W 070°38'1 0.8
2016-May-12 19:33N 42°07' W 070°37'7 7.5
2016-May-12 18:33N 42°13' W 070°42'4 4.1
2016-May-12 17:33N 42°15' W 070°47'0 0.1
2016-May-12 16:34N 42°15' W 070°47'3 2.5
2016-May-12 15:33N 42°15' W 070°44'9 8.9
2016-May-12 14:31N 42°07' W 070°37'1 1.2
2016-May-12 13:20N 42°08' W 070°38'6 7.3
2016-May-12 12:33N 42°13' W 070°42'4 4.2
2016-May-12 11:33N 42°15' W 070°47'0 0.1
2016-May-12 10:33N 42°15' W 070°47'0 0.5
2016-May-12 09:33N 42°15' W 070°47'0 0.0
2016-May-12 08:33N 42°15' W 070°47'0 0.0
2016-May-12 07:33N 42°15' W 070°47'0 0.0
2016-May-12 06:33N 42°15' W 070°47'0 0.0
2016-May-12 05:33N 42°15' W 070°47'0 0.0
2016-May-12 04:33N 42°15' W 070°47'0 0.0
2016-May-12 03:33N 42°15' W 070°47'0 0.0
2016-May-12 02:33N 42°15' W 070°47'0 0.0
2016-May-12 01:33N 42°15' W 070°47'0 0.0
2016-May-12 00:33N 42°15' W 070°47'0 0.0
2016-May-11 23:33N 42°15' W 070°47'0 0.0
2016-May-11 22:33N 42°15' W 070°47'3 2.9
2016-May-11 21:33N 42°15' W 070°43'8 3.9
2016-May-11 19:26N 42°08' W 070°37'6 7.3
2016-May-11 18:33N 42°13' W 070°42'4 4.3
2016-May-11 17:33N 42°15' W 070°47'0 0.0
2016-May-11 16:32N 42°15' W 070°47'0 0.4
2016-May-11 15:33N 42°15' W 070°47'0 0.0
2016-May-11 14:32N 42°15' W 070°47'0 0.0
2016-May-11 13:33N 42°15' W 070°47'0 0.0
2016-May-11 12:33N 42°15' W 070°47'0 0.0
2016-May-11 11:33N 42°15' W 070°47'0 0.0
2016-May-11 10:32N 42°15' W 070°47'0 0.0
2016-May-11 09:33N 42°15' W 070°47'0 0.0
2016-May-11 08:29N 42°15' W 070°47'0 0.0
2016-May-11 07:33N 42°15' W 070°47'0 0.0
2016-May-11 06:33N 42°15' W 070°47'0 0.0
2016-May-11 05:33N 42°15' W 070°47'0 0.0
2016-May-11 04:33N 42°15' W 070°47'0 0.0
2016-May-11 03:33N 42°15' W 070°47'0 0.0
2016-May-11 02:33N 42°15' W 070°47'0 0.0
2016-May-11 01:33N 42°15' W 070°47'0 0.0
2016-May-11 00:34N 42°15' W 070°47'0 0.0
2016-May-10 23:33N 42°15' W 070°47'0 0.0
2016-May-10 22:33N 42°15' W 070°47'4 3.5
2016-May-10 21:32N 42°14' W 070°43'4 1.9
2016-May-10 19:13N 42°10' W 070°39'7 7.3
2016-May-10 18:14N 42°16' W 070°45'1 1.8
2016-May-10 17:27N 42°15' W 070°47'1 1.1
2016-May-10 16:32N 42°16' W 070°46'6 1.8
2016-May-10 13:31N 42°12' W 070°41'6 5.7
2016-May-10 12:30N 42°15' W 070°47'0 0.3
2016-May-10 11:33N 42°15' W 070°47'0 0.0
2016-May-10 10:33N 42°15' W 070°47'0 0.5
2016-May-10 09:33N 42°15' W 070°47'0 0.0
2016-May-10 08:33N 42°15' W 070°47'0 0.0
2016-May-10 07:33N 42°15' W 070°47'0 0.0
2016-May-10 06:33N 42°15' W 070°47'0 0.0
2016-May-10 05:33N 42°15' W 070°47'0 0.0
2016-May-10 04:33N 42°15' W 070°47'0 0.0
2016-May-10 03:33N 42°15' W 070°47'0 0.0
2016-May-10 02:33N 42°15' W 070°47'0 0.0
2016-May-10 01:32N 42°15' W 070°47'0 0.0
2016-May-10 00:28N 42°15' W 070°47'0 0.0
2016-May-09 23:33N 42°15' W 070°47'0 0.0
2016-May-09 22:32N 42°15' W 070°47'0 0.0
2016-May-09 21:31N 42°15' W 070°47'0 0.0
2016-May-09 20:20N 42°15' W 070°47'0 0.0
2016-May-09 19:27N 42°15' W 070°47'2 2.1
2016-May-09 18:32N 42°16' W 070°45'  

Dump ship's entire track history